createdAt,value
2023-03-16T00:01:06.199Z,99769.47
2023-03-16T00:03:38.238Z,99772.28
2023-03-16T00:06:10.155Z,99777.50
2023-03-16T00:08:43.244Z,99781.75
2023-03-16T00:11:14.903Z,99786.03
2023-03-16T00:13:47.856Z,99780.81
2023-03-16T00:16:19.577Z,99782.59
2023-03-16T00:18:51.300Z,99778.72
2023-03-16T00:21:22.984Z,99778.91
2023-03-16T00:23:54.655Z,99784.03
2023-03-16T00:26:26.437Z,99783.94
2023-03-16T00:28:58.321Z,99784.03
2023-03-16T00:31:30.056Z,99787.66
2023-03-16T00:34:04.679Z,99784.34
2023-03-16T00:36:38.313Z,99782.75
2023-03-16T00:39:11.850Z,99788.88
2023-03-16T00:41:44.076Z,99785.66
2023-03-16T00:44:16.863Z,99786.59
2023-03-16T00:46:48.488Z,99789.28
2023-03-16T00:49:22.461Z,99786.66
2023-03-16T00:51:54.259Z,99789.34
2023-03-16T00:54:27.124Z,99791.16
2023-03-16T00:57:00.135Z,99796.53
2023-03-16T00:59:32.130Z,99794.88
2023-03-16T01:02:05.508Z,99802.66
2023-03-16T01:04:38.079Z,99798.59
2023-03-16T01:07:13.493Z,99798.78
2023-03-16T01:09:45.601Z,99800.84
2023-03-16T01:12:19.522Z,99800.13
2023-03-16T01:14:51.233Z,99809.78
2023-03-16T01:17:23.952Z,99810.78
2023-03-16T01:19:55.653Z,99810.06
2023-03-16T01:22:28.640Z,99813.50
2023-03-16T01:25:00.327Z,99812.75
2023-03-16T01:27:32.979Z,99811.00
2023-03-16T01:30:06.352Z,99815.34
2023-03-16T01:32:39.969Z,99812.75
2023-03-16T01:35:12.704Z,99815.34
2023-03-16T01:37:44.649Z,99814.72
2023-03-16T01:40:22.246Z,99816.56
2023-03-16T01:43:04.864Z,99827.06
2023-03-16T01:46:06.087Z,99823.81
2023-03-16T01:49:05.518Z,99829.13
2023-03-16T01:51:50.857Z,99830.78
2023-03-16T01:54:34.273Z,99826.50
2023-03-16T01:57:10.457Z,99829.19
2023-03-16T01:59:49.420Z,99830.97
2023-03-16T02:02:24.126Z,99822.34
2023-03-16T02:05:08.128Z,99830.25
2023-03-16T02:07:46.447Z,99827.72
2023-03-16T02:10:20.391Z,99826.06
2023-03-16T02:12:53.471Z,99828.00
2023-03-16T02:15:27.366Z,99826.50
2023-03-16T02:18:00.263Z,99831.84
2023-03-16T02:21:07.324Z,99837.19
2023-03-16T02:23:39.108Z,99838.13
2023-03-16T02:26:35.668Z,99835.63
2023-03-16T02:29:40.393Z,99837.31
2023-03-16T02:32:14.421Z,99844.28
2023-03-16T02:34:46.285Z,99839.25
2023-03-16T02:37:18.556Z,99843.06
2023-03-16T02:39:52.359Z,99840.75
2023-03-16T02:42:28.997Z,99857.25
2023-03-16T02:45:05.340Z,99852.97
2023-03-16T02:47:44.621Z,99855.75
2023-03-16T02:50:17.229Z,99854.38
2023-03-16T02:52:48.998Z,99856.97
2023-03-16T02:55:21.795Z,99854.19
2023-03-16T02:57:53.818Z,99856.50
2023-03-16T03:00:26.098Z,99860.03
2023-03-16T03:02:59.025Z,99868.09
2023-03-16T03:05:30.988Z,99876.00
2023-03-16T03:08:03.231Z,99871.59
2023-03-16T03:10:35.059Z,99865.50
2023-03-16T03:13:07.470Z,99879.41
2023-03-16T03:15:40.135Z,99876.06
2023-03-16T03:18:14.890Z,99877.84
2023-03-16T03:20:46.599Z,99878.75
2023-03-16T03:23:20.443Z,99881.44
2023-03-16T03:25:52.112Z,99878.13
2023-03-16T03:28:23.971Z,99882.34
2023-03-16T03:30:57.170Z,99880.72
2023-03-16T03:33:29.168Z,99879.03
2023-03-16T03:36:03.026Z,99879.03
2023-03-16T03:38:43.643Z,99886.91
2023-03-16T03:41:15.472Z,99893.94
2023-03-16T03:43:47.583Z,99891.53
2023-03-16T03:46:22.582Z,99895.13
2023-03-16T03:48:54.336Z,99892.53
2023-03-16T03:51:26.032Z,99896.88
2023-03-16T03:54:04.948Z,99890.06
2023-03-16T03:56:45.680Z,99896.09
2023-03-16T03:59:20.866Z,99889.28
2023-03-16T04:02:04.586Z,99892.72
2023-03-16T04:04:47.755Z,99896.25
2023-03-16T04:07:20.319Z,99892.66
2023-03-16T04:09:53.569Z,99902.34
2023-03-16T04:12:40.217Z,99905.06
2023-03-16T04:15:16.156Z,99893.00
2023-03-16T04:18:13.006Z,99904.13
2023-03-16T04:20:45.881Z,99899.88
2023-03-16T04:23:22.340Z,99899.97
2023-03-16T04:25:55.534Z,99896.69
2023-03-16T04:28:27.874Z,99912.44
2023-03-16T04:31:05.381Z,99911.78
2023-03-16T04:33:42.416Z,99909.28
2023-03-16T04:36:14.800Z,99914.56
2023-03-16T04:38:47.808Z,99921.69
2023-03-16T04:41:22.618Z,99924.19
2023-03-16T04:44:07.887Z,99919.34
2023-03-16T04:46:40.271Z,99921.28
2023-03-16T04:49:14.620Z,99923.81
2023-03-16T04:51:49.263Z,99926.28
2023-03-16T04:54:24.217Z,99932.25
2023-03-16T04:56:55.902Z,99929.63
2023-03-16T04:59:41.723Z,99931.41
2023-03-16T05:02:35.499Z,99933.16
2023-03-16T05:05:10.932Z,99926.97
2023-03-16T05:07:46.541Z,99932.25
2023-03-16T05:10:19.372Z,99927.97
2023-03-16T05:12:52.159Z,99933.06
2023-03-16T05:15:23.949Z,99921.78
2023-03-16T05:18:03.898Z,99922.63
2023-03-16T05:20:35.995Z,99929.47
2023-03-16T05:23:09.262Z,99926.88
2023-03-16T05:25:49.546Z,99933.66
2023-03-16T05:28:23.742Z,99932.66
2023-03-16T05:31:07.337Z,99926.44
2023-03-16T05:33:49.751Z,99925.16
2023-03-16T05:36:24.818Z,99928.31
2023-03-16T05:39:03.232Z,99933.94
2023-03-16T05:41:41.708Z,99928.09
2023-03-16T05:44:21.227Z,99924.88
2023-03-16T05:47:19.858Z,99925.28
2023-03-16T05:49:56.391Z,99911.13
2023-03-16T05:52:35.692Z,99913.94
2023-03-16T05:55:17.209Z,99918.31
2023-03-16T05:57:52.270Z,99912.56
2023-03-16T06:00:25.759Z,99916.69
2023-03-16T06:03:08.031Z,99923.28
2023-03-16T06:05:42.778Z,99916.41
2023-03-16T06:08:17.403Z,99917.78
2023-03-16T06:10:52.339Z,99921.88
2023-03-16T06:13:25.409Z,99918.09
2023-03-16T06:15:57.161Z,99909.50
2023-03-16T06:18:35.509Z,99919.19
2023-03-16T06:21:08.070Z,99922.00
2023-03-16T06:23:40.863Z,99918.41
2023-03-16T06:26:13.784Z,99915.34
2023-03-16T06:28:48.877Z,99915.16
2023-03-16T06:31:20.785Z,99925.25
2023-03-16T06:33:52.853Z,99927.97
2023-03-16T06:36:25.984Z,99930.00
2023-03-16T06:39:01.300Z,99934.75
2023-03-16T06:41:53.520Z,99942.56
2023-03-16T06:44:28.761Z,99948.25
2023-03-16T06:47:15.073Z,99951.03
2023-03-16T06:49:47.075Z,99952.41
2023-03-16T06:52:24.016Z,99958.59
2023-03-16T06:54:58.232Z,99970.19
2023-03-16T06:57:31.468Z,99970.75
2023-03-16T07:00:04.651Z,99969.28
2023-03-16T07:02:36.385Z,99975.41
2023-03-16T07:05:13.399Z,99970.56
2023-03-16T07:07:45.608Z,99972.16
2023-03-16T07:10:18.425Z,99974.63
2023-03-16T07:12:50.538Z,99981.81
2023-03-16T07:15:25.647Z,99977.28
2023-03-16T07:17:59.882Z,99973.41
2023-03-16T07:20:33.058Z,99973.84
2023-03-16T07:23:08.267Z,99971.06
2023-03-16T07:25:40.661Z,99980.09
2023-03-16T07:28:12.726Z,99976.81
2023-03-16T07:31:02.387Z,99979.88
2023-03-16T07:33:40.755Z,99978.50
2023-03-16T07:36:16.267Z,99972.75
2023-03-16T07:38:57.491Z,99981.41
2023-03-16T07:41:31.623Z,99974.69
2023-03-16T07:44:18.659Z,99964.50
2023-03-16T07:46:53.635Z,99968.00
2023-03-16T07:49:29.344Z,99975.94
2023-03-16T07:52:03.451Z,99978.75
2023-03-16T07:54:43.407Z,99981.88
2023-03-16T07:57:18.803Z,99973.88
2023-03-16T07:59:50.563Z,99980.41
2023-03-16T08:02:23.094Z,99987.34
2023-03-16T08:04:55.646Z,99988.44
2023-03-16T08:07:28.269Z,99998.50
2023-03-16T08:10:12.277Z,99988.16
2023-03-16T08:12:50.067Z,100000.13
2023-03-16T08:15:22.392Z,99999.75
2023-03-16T08:17:59.296Z,99995.56
2023-03-16T08:20:32.286Z,99989.44
2023-03-16T08:23:04.343Z,99988.69
2023-03-16T08:25:43.309Z,99985.31
2023-03-16T08:28:21.749Z,99982.16
2023-03-16T08:30:55.720Z,99981.72
2023-03-16T08:33:38.690Z,99985.44
2023-03-16T08:36:13.847Z,99982.56
2023-03-16T08:39:00.068Z,99985.78
2023-03-16T08:41:38.138Z,99987.03
2023-03-16T08:44:14.217Z,99998.59
2023-03-16T08:46:47.398Z,99998.28
2023-03-16T08:49:20.837Z,100001.56
2023-03-16T08:52:00.802Z,99996.22
2023-03-16T08:54:35.635Z,99990.84
2023-03-16T08:57:07.727Z,99997.56
2023-03-16T08:59:41.742Z,99992.88
2023-03-16T09:02:14.822Z,99990.81
2023-03-16T09:04:47.236Z,99989.91
2023-03-16T09:07:20.546Z,99988.34
2023-03-16T09:09:52.781Z,99989.59
2023-03-16T09:12:25.051Z,99992.72
2023-03-16T09:14:56.858Z,99997.41
2023-03-16T09:17:28.648Z,99993.34
2023-03-16T09:20:15.064Z,99995.81
2023-03-16T09:22:52.210Z,100004.66
2023-03-16T09:25:25.467Z,99998.19
2023-03-16T09:27:57.299Z,99987.44
2023-03-16T09:30:29.775Z,100002.16
2023-03-16T09:33:04.926Z,99996.72
2023-03-16T09:35:37.266Z,100000.13
2023-03-16T09:38:10.194Z,100005.28
2023-03-16T09:40:46.691Z,100004.88
2023-03-16T09:43:32.305Z,100006.78
2023-03-16T09:46:36.266Z,100006.59
2023-03-16T09:49:12.306Z,100012.19
2023-03-16T09:52:30.221Z,100010.75
2023-03-16T09:55:15.312Z,100003.25
2023-03-16T09:57:51.050Z,100001.16
2023-03-16T10:00:27.956Z,100008.59
2023-03-16T10:03:24.193Z,100004.25
2023-03-16T10:06:02.260Z,100003.16
2023-03-16T10:08:58.577Z,100008.91
2023-03-16T10:11:42.777Z,100005.38
2023-03-16T10:14:37.957Z,100000.97
2023-03-16T10:17:22.007Z,99998.47
2023-03-16T10:19:58.972Z,99994.91
2023-03-16T10:22:35.698Z,99985.09
2023-03-16T10:25:16.459Z,99992.16
2023-03-16T10:27:49.124Z,99997.84
2023-03-16T10:30:32.486Z,99993.16
2023-03-16T10:33:18.446Z,99993.38
2023-03-16T10:36:12.595Z,99990.94
2023-03-16T10:38:48.321Z,99985.13
2023-03-16T10:41:22.739Z,99993.94
2023-03-16T10:43:59.838Z,99992.09
2023-03-16T10:46:39.416Z,99983.50
2023-03-16T10:49:22.157Z,99982.22
2023-03-16T10:51:57.215Z,99986.31
2023-03-16T10:54:33.750Z,99989.34
2023-03-16T10:57:21.011Z,99986.31
2023-03-16T10:59:56.744Z,99989.19
2023-03-16T11:02:33.396Z,99982.72
2023-03-16T11:05:24.692Z,99984.66
2023-03-16T11:08:12.023Z,99972.28
2023-03-16T11:10:58.238Z,99967.44
2023-03-16T11:13:37.695Z,99961.94
2023-03-16T11:16:30.609Z,99959.34
2023-03-16T11:19:23.677Z,99959.16
2023-03-16T11:22:08.596Z,99961.63
2023-03-16T11:24:52.548Z,99961.50
2023-03-16T11:27:37.565Z,99959.81
2023-03-16T11:30:09.776Z,99960.81
2023-03-16T11:32:46.922Z,99949.06
2023-03-16T11:35:22.515Z,99957.19
2023-03-16T11:38:17.744Z,99955.16
2023-03-16T11:40:56.072Z,99946.38
2023-03-16T11:43:55.406Z,99939.50
2023-03-16T11:46:55.586Z,99931.00
2023-03-16T11:49:54.881Z,99928.53
2023-03-16T11:52:50.247Z,99918.25
2023-03-16T11:55:29.037Z,99920.41
2023-03-16T11:58:19.720Z,99920.69
2023-03-16T12:01:13.264Z,99927.81
2023-03-16T12:04:10.275Z,99931.94
2023-03-16T12:06:47.972Z,99921.47
2023-03-16T12:09:50.727Z,99913.50
2023-03-16T12:12:40.570Z,99915.53
2023-03-16T12:15:33.293Z,99927.16
2023-03-16T12:18:16.736Z,99927.16
2023-03-16T12:21:03.498Z,99916.31
2023-03-16T12:23:40.821Z,99913.81
2023-03-16T12:26:12.598Z,99916.09
2023-03-16T12:28:45.122Z,99906.19
2023-03-16T12:31:25.614Z,99899.88
2023-03-16T12:34:03.085Z,99902.34
2023-03-16T12:37:05.586Z,99908.16
2023-03-16T12:39:55.363Z,99905.59
2023-03-16T12:42:52.177Z,99897.88
2023-03-16T12:46:00.926Z,99890.31
2023-03-16T12:48:42.786Z,99889.44
2023-03-16T12:51:14.613Z,99883.47
2023-03-16T12:53:54.866Z,99889.06
2023-03-16T12:56:36.471Z,99887.88
2023-03-16T12:59:15.363Z,99880.06
2023-03-16T13:02:13.057Z,99888.19
2023-03-16T13:04:51.546Z,99880.19
2023-03-16T13:07:26.377Z,99889.94
2023-03-16T13:10:04.286Z,99884.41
2023-03-16T13:12:38.214Z,99875.28
2023-03-16T13:15:19.519Z,99885.38
2023-03-16T13:18:06.615Z,99872.31
2023-03-16T13:20:53.605Z,99876.81
2023-03-16T13:23:27.560Z,99878.09
2023-03-16T13:26:11.056Z,99872.00
2023-03-16T13:28:46.095Z,99877.03
2023-03-16T13:31:35.950Z,99874.31
2023-03-16T13:34:14.775Z,99871.69
2023-03-16T13:36:46.675Z,99870.66
2023-03-16T13:39:22.318Z,99874.69
2023-03-16T13:41:59.559Z,99876.41
2023-03-16T13:44:32.549Z,99856.41
2023-03-16T13:47:05.322Z,99870.50
2023-03-16T13:49:56.905Z,99857.56
2023-03-16T13:52:31.576Z,99851.91
2023-03-16T13:55:06.635Z,99841.03
2023-03-16T13:57:40.841Z,99846.72
2023-03-16T14:00:25.428Z,99853.25
2023-03-16T14:02:59.200Z,99843.66
2023-03-16T14:05:35.270Z,99848.63
2023-03-16T14:08:22.597Z,99841.28
2023-03-16T14:10:59.828Z,99846.03
2023-03-16T14:13:36.263Z,99838.91
2023-03-16T14:16:13.410Z,99829.81
2023-03-16T14:18:52.651Z,99833.13
2023-03-16T14:21:27.406Z,99829.28
2023-03-16T14:24:00.189Z,99827.34
2023-03-16T14:26:46.616Z,99818.09
2023-03-16T14:29:28.208Z,99815.38
2023-03-16T14:32:00.259Z,99812.88
2023-03-16T14:34:37.223Z,99814.50
2023-03-16T14:37:11.849Z,99808.38
2023-03-16T14:39:43.568Z,99806.56
2023-03-16T14:42:25.989Z,99789.16
2023-03-16T14:45:10.991Z,99799.31
2023-03-16T14:47:46.458Z,99787.16
2023-03-16T14:50:23.984Z,99793.44
2023-03-16T14:52:57.271Z,99787.94
2023-03-16T14:55:29.390Z,99785.13
2023-03-16T14:58:01.777Z,99777.69
2023-03-16T15:00:42.817Z,99783.63
2023-03-16T15:03:33.220Z,99779.66
2023-03-16T15:06:05.209Z,99789.34
2023-03-16T15:08:44.316Z,99790.47
2023-03-16T15:11:21.308Z,99783.66
2023-03-16T15:13:53.833Z,99783.97
2023-03-16T15:16:26.031Z,99779.38
2023-03-16T15:18:57.788Z,99779.47
2023-03-16T15:21:32.306Z,99785.00
2023-03-16T15:24:04.067Z,99783.19
2023-03-16T15:26:35.969Z,99794.34
2023-03-16T15:29:13.654Z,99777.31
2023-03-16T15:31:45.706Z,99777.03
2023-03-16T15:34:17.481Z,99792.97
2023-03-16T15:36:50.004Z,99784.66
2023-03-16T15:39:24.913Z,99792.00
2023-03-16T15:41:56.868Z,99795.06
2023-03-16T15:44:31.709Z,99782.88
2023-03-16T15:47:04.561Z,99786.78
2023-03-16T15:49:47.164Z,99795.63
2023-03-16T15:52:33.273Z,99790.84
2023-03-16T15:55:09.424Z,99798.56
2023-03-16T15:57:41.323Z,99788.59
2023-03-16T16:00:37.452Z,99783.63
2023-03-16T16:03:11.698Z,99783.75
2023-03-16T16:05:43.394Z,99779.75
2023-03-16T16:08:15.429Z,99774.78
2023-03-16T16:10:48.758Z,99778.53
2023-03-16T16:13:37.469Z,99773.28
2023-03-16T16:16:16.073Z,99779.34
2023-03-16T16:18:48.298Z,99768.41
2023-03-16T16:21:24.510Z,99764.13
2023-03-16T16:23:56.847Z,99772.00
2023-03-16T16:26:48.300Z,99770.50
2023-03-16T16:29:22.609Z,99769.81
2023-03-16T16:31:55.437Z,99774.41
2023-03-16T16:34:28.024Z,99770.78
2023-03-16T16:36:59.787Z,99766.06
2023-03-16T16:39:31.468Z,99773.84
2023-03-16T16:42:03.384Z,99778.50
2023-03-16T16:44:37.623Z,99780.06
2023-03-16T16:47:20.618Z,99791.25
2023-03-16T16:49:52.740Z,99780.72
2023-03-16T16:52:24.546Z,99771.59
2023-03-16T16:54:56.217Z,99764.69
2023-03-16T16:57:27.910Z,99771.06
2023-03-16T17:00:00.664Z,99776.44
2023-03-16T17:02:43.390Z,99769.69
2023-03-16T17:05:26.973Z,99769.09
2023-03-16T17:08:04.080Z,99772.00
2023-03-16T17:10:37.787Z,99773.22
2023-03-16T17:13:26.360Z,99780.28
2023-03-16T17:15:58.862Z,99779.84
2023-03-16T17:18:30.660Z,99781.09
2023-03-16T17:21:02.505Z,99772.53
2023-03-16T17:23:37.234Z,99767.69
2023-03-16T17:26:28.869Z,99774.16
2023-03-16T17:29:05.325Z,99767.66
2023-03-16T17:31:41.749Z,99770.81
2023-03-16T17:34:23.214Z,99771.19
2023-03-16T17:36:58.448Z,99771.34
2023-03-16T17:39:36.453Z,99777.56
2023-03-16T17:42:18.471Z,99775.78
2023-03-16T17:44:52.415Z,99774.38
2023-03-16T17:47:31.214Z,99773.69
2023-03-16T17:50:02.959Z,99768.13
2023-03-16T17:52:37.157Z,99769.06
2023-03-16T17:55:09.123Z,99760.75
2023-03-16T17:57:41.136Z,99763.63
2023-03-16T18:00:23.439Z,99767.59
2023-03-16T18:02:58.749Z,99760.13
2023-03-16T18:05:35.536Z,99771.28
2023-03-16T18:08:13.483Z,99764.63
2023-03-16T18:10:46.842Z,99757.16
2023-03-16T18:13:27.582Z,99755.91
2023-03-16T18:16:02.894Z,99763.88
2023-03-16T18:18:38.417Z,99764.28
2023-03-16T18:21:21.741Z,99764.53
2023-03-16T18:23:54.132Z,99769.28
2023-03-16T18:26:27.527Z,99765.84
2023-03-16T18:28:59.351Z,99760.72
2023-03-16T18:31:31.172Z,99752.72
2023-03-16T18:34:06.363Z,99759.59
2023-03-16T18:36:43.072Z,99754.72
2023-03-16T18:39:19.162Z,99752.47
2023-03-16T18:41:51.094Z,99751.53
2023-03-16T18:44:25.884Z,99761.69
2023-03-16T18:47:01.192Z,99756.22
2023-03-16T18:49:35.842Z,99759.34
2023-03-16T18:52:28.424Z,99769.03
2023-03-16T18:55:00.159Z,99765.09
2023-03-16T18:57:32.473Z,99764.97
2023-03-16T19:00:04.693Z,99760.97
2023-03-16T19:02:39.065Z,99756.09
2023-03-16T19:05:15.638Z,99754.56
2023-03-16T19:07:50.255Z,99764.19
2023-03-16T19:10:25.978Z,99765.16
2023-03-16T19:12:58.416Z,99755.78
2023-03-16T19:15:34.501Z,99754.81
2023-03-16T19:18:06.322Z,99745.88
2023-03-16T19:20:38.827Z,99754.34
2023-03-16T19:23:23.597Z,99756.16
2023-03-16T19:25:56.057Z,99756.72
2023-03-16T19:28:34.807Z,99754.00
2023-03-16T19:31:16.669Z,99751.94
2023-03-16T19:33:49.551Z,99742.28
2023-03-16T19:36:32.276Z,99734.16
2023-03-16T19:39:04.261Z,99745.97
2023-03-16T19:41:37.812Z,99744.00
2023-03-16T19:44:20.606Z,99747.59
2023-03-16T19:46:52.623Z,99745.91
2023-03-16T19:49:27.094Z,99747.47
2023-03-16T19:51:58.800Z,99745.91
2023-03-16T19:54:34.097Z,99738.19
2023-03-16T19:57:14.303Z,99734.59
2023-03-16T19:59:50.262Z,99727.47
2023-03-16T20:02:34.701Z,99725.69
2023-03-16T20:05:07.882Z,99724.13
2023-03-16T20:07:39.569Z,99726.28
2023-03-16T20:10:23.664Z,99726.56
2023-03-16T20:13:00.614Z,99730.81
2023-03-16T20:15:33.252Z,99724.50
2023-03-16T20:18:13.232Z,99732.09
2023-03-16T20:20:46.176Z,99733.53
2023-03-16T20:23:26.582Z,99737.09
2023-03-16T20:26:02.642Z,99718.44
2023-03-16T20:28:36.969Z,99715.94
2023-03-16T20:31:17.408Z,99711.53
2023-03-16T20:33:50.737Z,99710.19
2023-03-16T20:36:24.175Z,99707.59
2023-03-16T20:38:56.057Z,99712.59
2023-03-16T20:41:32.770Z,99710.81
2023-03-16T20:44:05.003Z,99705.56
2023-03-16T20:46:41.245Z,99708.88
2023-03-16T20:49:22.607Z,99712.59
2023-03-16T20:51:54.330Z,99715.66
2023-03-16T20:54:26.120Z,99714.81
2023-03-16T20:56:57.872Z,99715.38
2023-03-16T20:59:30.426Z,99713.38
2023-03-16T21:02:03.216Z,99718.59
2023-03-16T21:04:34.914Z,99724.41
2023-03-16T21:07:06.910Z,99726.91
2023-03-16T21:09:38.556Z,99719.06
2023-03-16T21:12:34.815Z,99717.50
2023-03-16T21:15:29.280Z,99712.41
2023-03-16T21:18:06.464Z,99714.69
2023-03-16T21:20:38.216Z,99713.66
2023-03-16T21:23:19.198Z,99708.41
2023-03-16T21:25:56.787Z,99706.75
2023-03-16T21:28:32.492Z,99701.78
2023-03-16T21:31:05.237Z,99706.19
2023-03-16T21:33:43.268Z,99700.00
2023-03-16T21:36:18.170Z,99708.53
2023-03-16T21:38:50.563Z,99710.19
2023-03-16T21:41:22.936Z,99716.16
2023-03-16T21:43:55.020Z,99710.91
2023-03-16T21:46:29.837Z,99708.41
2023-03-16T21:49:03.662Z,99708.53
2023-03-16T21:51:36.289Z,99698.94
2023-03-16T21:54:13.531Z,99691.03
2023-03-16T21:56:46.465Z,99689.03
2023-03-16T21:59:18.162Z,99676.06
2023-03-16T22:02:01.088Z,99688.31
2023-03-16T22:04:33.689Z,99685.69
2023-03-16T22:07:11.633Z,99696.03
2023-03-16T22:09:43.408Z,99698.78
2023-03-16T22:12:15.812Z,99697.38
2023-03-16T22:14:48.345Z,99694.06
2023-03-16T22:17:22.280Z,99696.69
2023-03-16T22:19:54.072Z,99690.84
2023-03-16T22:22:27.283Z,99688.84
2023-03-16T22:24:58.950Z,99686.84
2023-03-16T22:27:30.630Z,99690.66
2023-03-16T22:30:03.423Z,99689.13
2023-03-16T22:32:35.583Z,99695.41
2023-03-16T22:35:13.919Z,99699.25
2023-03-16T22:37:45.745Z,99696.06
2023-03-16T22:40:18.985Z,99701.63
2023-03-16T22:42:50.760Z,99706.16
2023-03-16T22:45:25.018Z,99702.81
2023-03-16T22:47:58.508Z,99711.72
2023-03-16T22:50:35.209Z,99709.47
2023-03-16T22:53:08.898Z,99707.25
2023-03-16T22:55:40.723Z,99713.53
2023-03-16T22:58:32.552Z,99706.06
2023-03-16T23:01:21.731Z,99701.19
2023-03-16T23:03:53.784Z,99705.09
2023-03-16T23:06:31.483Z,99698.22
2023-03-16T23:09:03.639Z,99703.91
2023-03-16T23:11:36.461Z,99701.66
2023-03-16T23:14:16.899Z,99701.78
2023-03-16T23:16:49.354Z,99697.38
2023-03-16T23:19:33.902Z,99694.53
2023-03-16T23:22:07.225Z,99691.69
2023-03-16T23:24:39.852Z,99691.56
2023-03-16T23:27:21.415Z,99694.88
2023-03-16T23:29:53.220Z,99682.78
2023-03-16T23:32:24.888Z,99677.56
2023-03-16T23:34:56.539Z,99677.78
2023-03-16T23:37:28.312Z,99671.72
2023-03-16T23:39:59.992Z,99673.38
2023-03-16T23:42:31.715Z,99675.75
2023-03-16T23:45:10.200Z,99672.56
2023-03-16T23:47:42.132Z,99669.81
2023-03-16T23:50:17.556Z,99667.22
2023-03-16T23:52:49.287Z,99666.38
2023-03-16T23:55:21.457Z,99668.06
2023-03-16T23:57:53.166Z,99668.16
